sensor_id;sensor_type;location;lat;lon;timestamp;P1;durP1;ratioP1;P2;durP2;ratioP2
61840;SDS011;47773;53.174;6.614;2023-04-08T00:01:04;13.20;;;7.63;;
61840;SDS011;47773;53.174;6.614;2023-04-08T00:03:30;12.32;;;7.97;;
61840;SDS011;47773;53.174;6.614;2023-04-08T00:05:56;14.57;;;8.07;;
61840;SDS011;47773;53.174;6.614;2023-04-08T00:08:22;13.13;;;8.27;;
61840;SDS011;47773;53.174;6.614;2023-04-08T00:10:47;13.60;;;8.05;;
61840;SDS011;47773;53.174;6.614;2023-04-08T00:13:13;13.38;;;7.88;;
61840;SDS011;47773;53.174;6.614;2023-04-08T00:15:39;12.60;;;7.45;;
61840;SDS011;47773;53.174;6.614;2023-04-08T00:18:06;11.90;;;8.18;;
61840;SDS011;47773;53.174;6.614;2023-04-08T00:20:32;13.32;;;8.43;;
61840;SDS011;47773;53.174;6.614;2023-04-08T00:22:57;13.18;;;7.72;;
61840;SDS011;47773;53.174;6.614;2023-04-08T00:25:23;13.93;;;8.85;;
61840;SDS011;47773;53.174;6.614;2023-04-08T00:27:49;12.73;;;8.13;;
61840;SDS011;47773;53.174;6.614;2023-04-08T00:30:14;12.68;;;8.38;;
61840;SDS011;47773;53.174;6.614;2023-04-08T00:32:40;17.05;;;8.45;;
61840;SDS011;47773;53.174;6.614;2023-04-08T00:35:06;12.27;;;8.27;;
61840;SDS011;47773;53.174;6.614;2023-04-08T00:37:32;14.35;;;7.78;;
61840;SDS011;47773;53.174;6.614;2023-04-08T00:39:59;12.65;;;8.48;;
61840;SDS011;47773;53.174;6.614;2023-04-08T00:42:25;14.85;;;8.38;;
61840;SDS011;47773;53.174;6.614;2023-04-08T00:44:50;12.13;;;8.23;;
61840;SDS011;47773;53.174;6.614;2023-04-08T00:47:16;15.48;;;8.65;;
61840;SDS011;47773;53.174;6.614;2023-04-08T00:49:42;11.30;;;8.38;;
61840;SDS011;47773;53.174;6.614;2023-04-08T00:52:08;16.80;;;8.98;;
61840;SDS011;47773;53.174;6.614;2023-04-08T00:54:35;14.98;;;8.93;;
61840;SDS011;47773;53.174;6.614;2023-04-08T00:57:01;12.23;;;8.80;;
61840;SDS011;47773;53.174;6.614;2023-04-08T00:59:28;15.80;;;8.80;;
61840;SDS011;47773;53.174;6.614;2023-04-08T01:05:01;15.05;;;9.48;;
61840;SDS011;47773;53.174;6.614;2023-04-08T01:07:36;13.27;;;8.73;;
61840;SDS011;47773;53.174;6.614;2023-04-08T01:10:06;13.68;;;8.90;;
61840;SDS011;47773;53.174;6.614;2023-04-08T01:12:36;16.23;;;9.30;;
61840;SDS011;47773;53.174;6.614;2023-04-08T01:15:06;16.00;;;9.25;;
61840;SDS011;47773;53.174;6.614;2023-04-08T01:17:33;14.93;;;9.88;;
61840;SDS011;47773;53.174;6.614;2023-04-08T01:20:01;14.02;;;9.80;;
61840;SDS011;47773;53.174;6.614;2023-04-08T01:25:20;14.45;;;9.65;;
61840;SDS011;47773;53.174;6.614;2023-04-08T01:27:50;13.93;;;9.63;;
61840;SDS011;47773;53.174;6.614;2023-04-08T01:30:20;14.43;;;10.00;;
61840;SDS011;47773;53.174;6.614;2023-04-08T01:32:47;15.32;;;10.25;;
61840;SDS011;47773;53.174;6.614;2023-04-08T01:35:16;18.73;;;10.23;;
61840;SDS011;47773;53.174;6.614;2023-04-08T01:37:42;14.48;;;10.00;;
61840;SDS011;47773;53.174;6.614;2023-04-08T01:40:11;19.20;;;10.60;;
61840;SDS011;47773;53.174;6.614;2023-04-08T01:42:37;18.15;;;10.73;;
61840;SDS011;47773;53.174;6.614;2023-04-08T01:45:04;16.23;;;10.05;;
61840;SDS011;47773;53.174;6.614;2023-04-08T01:47:31;14.68;;;10.38;;
61840;SDS011;47773;53.174;6.614;2023-04-08T01:49:58;18.17;;;10.73;;
61840;SDS011;47773;53.174;6.614;2023-04-08T01:52:25;19.05;;;11.40;;
61840;SDS011;47773;53.174;6.614;2023-04-08T01:54:54;15.95;;;10.45;;
61840;SDS011;47773;53.174;6.614;2023-04-08T01:57:23;18.20;;;10.85;;
61840;SDS011;47773;53.174;6.614;2023-04-08T01:59:55;21.65;;;11.25;;
61840;SDS011;47773;53.174;6.614;2023-04-08T02:02:25;21.50;;;11.43;;
61840;SDS011;47773;53.174;6.614;2023-04-08T02:04:52;19.35;;;10.65;;
61840;SDS011;47773;53.174;6.614;2023-04-08T02:07:18;17.20;;;11.27;;
61840;SDS011;47773;53.174;6.614;2023-04-08T02:09:44;19.65;;;11.52;;
61840;SDS011;47773;53.174;6.614;2023-04-08T02:12:10;18.70;;;11.35;;
61840;SDS011;47773;53.174;6.614;2023-04-08T02:14:36;17.40;;;11.25;;
61840;SDS011;47773;53.174;6.614;2023-04-08T02:17:12;18.02;;;11.55;;
61840;SDS011;47773;53.174;6.614;2023-04-08T02:20:05;15.45;;;10.68;;
61840;SDS011;47773;53.174;6.614;2023-04-08T02:25:15;21.88;;;11.57;;
61840;SDS011;47773;53.174;6.614;2023-04-08T02:27:41;17.73;;;11.10;;
61840;SDS011;47773;53.174;6.614;2023-04-08T02:30:10;17.65;;;11.38;;
61840;SDS011;47773;53.174;6.614;2023-04-08T02:32:37;18.20;;;11.45;;
61840;SDS011;47773;53.174;6.614;2023-04-08T02:35:03;20.70;;;11.93;;
61840;SDS011;47773;53.174;6.614;2023-04-08T02:37:30;20.65;;;11.88;;
61840;SDS011;47773;53.174;6.614;2023-04-08T02:39:57;20.17;;;11.98;;
61840;SDS011;47773;53.174;6.614;2023-04-08T02:42:22;18.90;;;11.52;;
61840;SDS011;47773;53.174;6.614;2023-04-08T02:44:49;22.10;;;11.65;;
61840;SDS011;47773;53.174;6.614;2023-04-08T02:47:15;17.77;;;11.55;;
61840;SDS011;47773;53.174;6.614;2023-04-08T02:49:41;18.92;;;11.70;;
61840;SDS011;47773;53.174;6.614;2023-04-08T02:52:07;17.15;;;11.82;;
61840;SDS011;47773;53.174;6.614;2023-04-08T02:54:35;21.35;;;11.90;;
61840;SDS011;47773;53.174;6.614;2023-04-08T02:57:00;19.85;;;12.10;;
61840;SDS011;47773;53.174;6.614;2023-04-08T02:59:26;17.75;;;11.70;;
61840;SDS011;47773;53.174;6.614;2023-04-08T03:01:52;18.85;;;12.27;;
61840;SDS011;47773;53.174;6.614;2023-04-08T03:04:17;18.70;;;12.48;;
61840;SDS011;47773;53.174;6.614;2023-04-08T03:06:43;21.00;;;12.43;;
61840;SDS011;47773;53.174;6.614;2023-04-08T03:09:08;19.40;;;11.93;;
61840;SDS011;47773;53.174;6.614;2023-04-08T03:11:34;18.48;;;11.30;;
61840;SDS011;47773;53.174;6.614;2023-04-08T03:14:00;19.50;;;12.10;;
61840;SDS011;47773;53.174;6.614;2023-04-08T03:16:25;29.38;;;12.88;;
61840;SDS011;47773;53.174;6.614;2023-04-08T03:18:51;21.67;;;12.73;;
61840;SDS011;47773;53.174;6.614;2023-04-08T03:21:17;23.00;;;13.02;;
61840;SDS011;47773;53.174;6.614;2023-04-08T03:23:43;20.10;;;11.95;;
61840;SDS011;47773;53.174;6.614;2023-04-08T03:26:08;19.48;;;12.73;;
61840;SDS011;47773;53.174;6.614;2023-04-08T03:28:34;20.83;;;12.88;;
61840;SDS011;47773;53.174;6.614;2023-04-08T03:31:01;19.95;;;12.13;;
61840;SDS011;47773;53.174;6.614;2023-04-08T03:33:28;19.58;;;12.82;;
61840;SDS011;47773;53.174;6.614;2023-04-08T03:35:53;19.95;;;12.27;;
61840;SDS011;47773;53.174;6.614;2023-04-08T03:38:19;19.55;;;12.30;;
61840;SDS011;47773;53.174;6.614;2023-04-08T03:40:45;19.17;;;12.40;;
61840;SDS011;47773;53.174;6.614;2023-04-08T03:43:10;20.95;;;12.93;;
61840;SDS011;47773;53.174;6.614;2023-04-08T03:45:38;21.60;;;13.45;;
61840;SDS011;47773;53.174;6.614;2023-04-08T03:48:03;21.33;;;13.55;;
61840;SDS011;47773;53.174;6.614;2023-04-08T03:50:29;20.40;;;11.95;;
61840;SDS011;47773;53.174;6.614;2023-04-08T03:52:55;22.55;;;13.30;;
61840;SDS011;47773;53.174;6.614;2023-04-08T03:55:20;20.83;;;13.48;;
61840;SDS011;47773;53.174;6.614;2023-04-08T03:57:46;20.35;;;13.63;;
61840;SDS011;47773;53.174;6.614;2023-04-08T04:00:12;25.08;;;13.50;;
61840;SDS011;47773;53.174;6.614;2023-04-08T04:02:38;21.48;;;13.50;;
61840;SDS011;47773;53.174;6.614;2023-04-08T04:05:04;22.50;;;13.35;;
61840;SDS011;47773;53.174;6.614;2023-04-08T04:07:30;20.98;;;13.13;;
61840;SDS011;47773;53.174;6.614;2023-04-08T04:09:55;21.38;;;13.02;;
61840;SDS011;47773;53.174;6.614;2023-04-08T04:12:21;17.85;;;11.90;;
61840;SDS011;47773;53.174;6.614;2023-04-08T04:14:47;20.45;;;12.02;;
61840;SDS011;47773;53.174;6.614;2023-04-08T04:17:13;17.88;;;12.20;;
61840;SDS011;47773;53.174;6.614;2023-04-08T04:19:39;18.10;;;12.25;;
61840;SDS011;47773;53.174;6.614;2023-04-08T04:22:05;16.27;;;11.60;;
61840;SDS011;47773;53.174;6.614;2023-04-08T04:24:30;17.55;;;12.10;;
61840;SDS011;47773;53.174;6.614;2023-04-08T04:26:56;19.58;;;13.10;;
61840;SDS011;47773;53.174;6.614;2023-04-08T04:29:22;20.13;;;12.85;;
61840;SDS011;47773;53.174;6.614;2023-04-08T04:31:47;22.98;;;13.15;;
61840;SDS011;47773;53.174;6.614;2023-04-08T04:34:13;19.45;;;13.27;;
61840;SDS011;47773;53.174;6.614;2023-04-08T04:36:39;22.52;;;13.40;;
61840;SDS011;47773;53.174;6.614;2023-04-08T04:39:05;21.75;;;13.55;;
61840;SDS011;47773;53.174;6.614;2023-04-08T04:41:31;22.90;;;13.18;;
61840;SDS011;47773;53.174;6.614;2023-04-08T04:43:56;21.50;;;13.45;;
61840;SDS011;47773;53.174;6.614;2023-04-08T04:46:22;21.63;;;13.25;;
61840;SDS011;47773;53.174;6.614;2023-04-08T04:48:48;20.75;;;12.70;;
61840;SDS011;47773;53.174;6.614;2023-04-08T04:51:13;21.98;;;13.85;;
61840;SDS011;47773;53.174;6.614;2023-04-08T04:53:39;21.10;;;13.63;;
61840;SDS011;47773;53.174;6.614;2023-04-08T04:56:05;22.23;;;14.23;;
61840;SDS011;47773;53.174;6.614;2023-04-08T04:58:31;22.17;;;14.85;;
61840;SDS011;47773;53.174;6.614;2023-04-08T05:00:56;23.45;;;14.60;;
61840;SDS011;47773;53.174;6.614;2023-04-08T05:03:22;25.38;;;14.65;;
61840;SDS011;47773;53.174;6.614;2023-04-08T05:05:51;24.60;;;13.95;;
61840;SDS011;47773;53.174;6.614;2023-04-08T05:08:17;26.27;;;15.70;;
61840;SDS011;47773;53.174;6.614;2023-04-08T05:10:43;26.30;;;15.82;;
61840;SDS011;47773;53.174;6.614;2023-04-08T05:13:09;25.85;;;15.05;;
61840;SDS011;47773;53.174;6.614;2023-04-08T05:15:35;28.65;;;16.08;;
61840;SDS011;47773;53.174;6.614;2023-04-08T05:18:00;26.83;;;16.05;;
61840;SDS011;47773;53.174;6.614;2023-04-08T05:20:26;28.27;;;16.00;;
61840;SDS011;47773;53.174;6.614;2023-04-08T05:22:52;24.27;;;15.23;;
61840;SDS011;47773;53.174;6.614;2023-04-08T05:25:18;25.77;;;16.08;;
61840;SDS011;47773;53.174;6.614;2023-04-08T05:27:43;27.88;;;16.05;;
61840;SDS011;47773;53.174;6.614;2023-04-08T05:30:09;26.33;;;16.52;;
61840;SDS011;47773;53.174;6.614;2023-04-08T05:32:35;26.25;;;15.85;;
61840;SDS011;47773;53.174;6.614;2023-04-08T05:35:02;27.15;;;15.73;;
61840;SDS011;47773;53.174;6.614;2023-04-08T05:37:27;28.08;;;16.60;;
61840;SDS011;47773;53.174;6.614;2023-04-08T05:39:53;27.20;;;16.05;;
61840;SDS011;47773;53.174;6.614;2023-04-08T05:42:19;27.67;;;16.88;;
61840;SDS011;47773;53.174;6.614;2023-04-08T05:44:45;28.67;;;16.17;;
61840;SDS011;47773;53.174;6.614;2023-04-08T05:47:10;26.33;;;16.60;;
61840;SDS011;47773;53.174;6.614;2023-04-08T05:49:36;30.05;;;17.40;;
61840;SDS011;47773;53.174;6.614;2023-04-08T05:52:01;32.67;;;16.75;;
61840;SDS011;47773;53.174;6.614;2023-04-08T05:54:28;30.45;;;18.08;;
61840;SDS011;47773;53.174;6.614;2023-04-08T05:56:53;32.53;;;18.77;;
61840;SDS011;47773;53.174;6.614;2023-04-08T05:59:19;36.67;;;18.80;;
61840;SDS011;47773;53.174;6.614;2023-04-08T06:01:45;32.80;;;18.60;;
61840;SDS011;47773;53.174;6.614;2023-04-08T06:04:11;32.75;;;19.92;;
61840;SDS011;47773;53.174;6.614;2023-04-08T06:06:37;38.78;;;20.15;;
61840;SDS011;47773;53.174;6.614;2023-04-08T06:09:05;35.95;;;20.95;;
61840;SDS011;47773;53.174;6.614;2023-04-08T06:11:31;40.20;;;22.52;;
61840;SDS011;47773;53.174;6.614;2023-04-08T06:13:57;38.65;;;21.00;;
61840;SDS011;47773;53.174;6.614;2023-04-08T06:16:22;38.55;;;21.88;;
61840;SDS011;47773;53.174;6.614;2023-04-08T06:18:48;35.42;;;20.67;;
61840;SDS011;47773;53.174;6.614;2023-04-08T06:21:13;43.15;;;22.38;;
61840;SDS011;47773;53.174;6.614;2023-04-08T06:23:39;35.88;;;19.35;;
61840;SDS011;47773;53.174;6.614;2023-04-08T06:26:05;35.65;;;19.73;;
61840;SDS011;47773;53.174;6.614;2023-04-08T06:28:31;35.75;;;18.95;;
61840;SDS011;47773;53.174;6.614;2023-04-08T06:30:57;31.52;;;18.80;;
61840;SDS011;47773;53.174;6.614;2023-04-08T06:33:23;32.03;;;17.02;;
61840;SDS011;47773;53.174;6.614;2023-04-08T06:35:49;30.98;;;18.05;;
61840;SDS011;47773;53.174;6.614;2023-04-08T06:38:14;35.25;;;18.10;;
61840;SDS011;47773;53.174;6.614;2023-04-08T06:40:40;31.02;;;16.92;;
61840;SDS011;47773;53.174;6.614;2023-04-08T06:43:06;30.95;;;17.58;;
61840;SDS011;47773;53.174;6.614;2023-04-08T06:45:32;27.67;;;16.40;;
61840;SDS011;47773;53.174;6.614;2023-04-08T06:47:58;27.70;;;15.23;;
61840;SDS011;47773;53.174;6.614;2023-04-08T06:50:24;28.95;;;15.90;;
61840;SDS011;47773;53.174;6.614;2023-04-08T06:52:50;26.52;;;15.68;;
61840;SDS011;47773;53.174;6.614;2023-04-08T06:55:16;24.42;;;14.88;;
61840;SDS011;47773;53.174;6.614;2023-04-08T06:57:41;27.42;;;14.98;;
61840;SDS011;47773;53.174;6.614;2023-04-08T07:00:07;23.45;;;14.52;;
61840;SDS011;47773;53.174;6.614;2023-04-08T07:02:33;28.08;;;15.00;;
61840;SDS011;47773;53.174;6.614;2023-04-08T07:04:59;22.63;;;13.60;;
61840;SDS011;47773;53.174;6.614;2023-04-08T07:07:25;23.77;;;13.80;;
61840;SDS011;47773;53.174;6.614;2023-04-08T07:09:50;22.75;;;13.90;;
61840;SDS011;47773;53.174;6.614;2023-04-08T07:12:16;24.88;;;14.40;;
61840;SDS011;47773;53.174;6.614;2023-04-08T07:14:42;22.90;;;13.25;;
61840;SDS011;47773;53.174;6.614;2023-04-08T07:17:07;23.63;;;13.48;;
61840;SDS011;47773;53.174;6.614;2023-04-08T07:19:33;22.98;;;13.50;;
61840;SDS011;47773;53.174;6.614;2023-04-08T07:21:59;22.80;;;13.77;;
61840;SDS011;47773;53.174;6.614;2023-04-08T07:24:24;22.10;;;14.45;;
61840;SDS011;47773;53.174;6.614;2023-04-08T07:26:51;24.48;;;13.80;;
61840;SDS011;47773;53.174;6.614;2023-04-08T07:29:16;24.58;;;13.27;;
61840;SDS011;47773;53.174;6.614;2023-04-08T07:31:42;22.90;;;13.30;;
61840;SDS011;47773;53.174;6.614;2023-04-08T07:34:08;22.40;;;13.60;;
61840;SDS011;47773;53.174;6.614;2023-04-08T07:36:34;22.08;;;13.27;;
61840;SDS011;47773;53.174;6.614;2023-04-08T07:39:00;23.90;;;12.45;;
61840;SDS011;47773;53.174;6.614;2023-04-08T07:41:26;19.40;;;12.52;;
61840;SDS011;47773;53.174;6.614;2023-04-08T07:43:52;22.38;;;13.27;;
61840;SDS011;47773;53.174;6.614;2023-04-08T07:46:17;22.88;;;13.85;;
61840;SDS011;47773;53.174;6.614;2023-04-08T07:48:44;21.70;;;12.43;;
61840;SDS011;47773;53.174;6.614;2023-04-08T07:51:10;19.42;;;11.95;;
61840;SDS011;47773;53.174;6.614;2023-04-08T07:53:35;21.75;;;13.18;;
61840;SDS011;47773;53.174;6.614;2023-04-08T07:56:01;20.85;;;12.55;;
61840;SDS011;47773;53.174;6.614;2023-04-08T07:58:28;18.95;;;11.80;;
61840;SDS011;47773;53.174;6.614;2023-04-08T08:00:54;21.50;;;12.88;;
61840;SDS011;47773;53.174;6.614;2023-04-08T08:03:21;22.38;;;13.15;;
61840;SDS011;47773;53.174;6.614;2023-04-08T08:05:47;20.73;;;12.05;;
61840;SDS011;47773;53.174;6.614;2023-04-08T08:08:13;20.42;;;12.32;;
61840;SDS011;47773;53.174;6.614;2023-04-08T08:10:39;19.52;;;11.73;;
61840;SDS011;47773;53.174;6.614;2023-04-08T08:13:05;20.58;;;11.95;;
61840;SDS011;47773;53.174;6.614;2023-04-08T08:15:31;19.40;;;10.93;;
61840;SDS011;47773;53.174;6.614;2023-04-08T08:17:57;20.88;;;11.23;;
61840;SDS011;47773;53.174;6.614;2023-04-08T08:20:23;22.70;;;11.45;;
61840;SDS011;47773;53.174;6.614;2023-04-08T08:22:48;19.77;;;12.38;;
61840;SDS011;47773;53.174;6.614;2023-04-08T08:25:14;19.75;;;12.00;;
61840;SDS011;47773;53.174;6.614;2023-04-08T08:27:41;21.77;;;12.52;;
61840;SDS011;47773;53.174;6.614;2023-04-08T08:30:07;20.33;;;12.75;;
61840;SDS011;47773;53.174;6.614;2023-04-08T08:32:34;22.02;;;13.80;;
61840;SDS011;47773;53.174;6.614;2023-04-08T08:35:00;26.25;;;14.27;;
61840;SDS011;47773;53.174;6.614;2023-04-08T08:37:25;22.75;;;13.98;;
61840;SDS011;47773;53.174;6.614;2023-04-08T08:39:51;27.88;;;14.23;;
61840;SDS011;47773;53.174;6.614;2023-04-08T08:42:20;26.00;;;14.55;;
61840;SDS011;47773;53.174;6.614;2023-04-08T08:44:47;32.58;;;16.33;;
61840;SDS011;47773;53.174;6.614;2023-04-08T08:47:14;29.02;;;15.63;;
61840;SDS011;47773;53.174;6.614;2023-04-08T08:49:41;28.67;;;16.13;;
61840;SDS011;47773;53.174;6.614;2023-04-08T08:52:07;28.52;;;15.45;;
61840;SDS011;47773;53.174;6.614;2023-04-08T08:54:32;27.23;;;15.63;;
61840;SDS011;47773;53.174;6.614;2023-04-08T08:56:58;26.95;;;15.05;;
61840;SDS011;47773;53.174;6.614;2023-04-08T08:59:23;27.83;;;15.05;;
61840;SDS011;47773;53.174;6.614;2023-04-08T09:01:49;26.70;;;14.90;;
61840;SDS011;47773;53.174;6.614;2023-04-08T09:04:16;28.63;;;15.23;;
61840;SDS011;47773;53.174;6.614;2023-04-08T09:06:44;23.23;;;13.50;;
61840;SDS011;47773;53.174;6.614;2023-04-08T09:09:11;26.45;;;14.60;;
61840;SDS011;47773;53.174;6.614;2023-04-08T09:11:38;22.27;;;13.43;;
61840;SDS011;47773;53.174;6.614;2023-04-08T09:14:18;26.88;;;13.55;;
61840;SDS011;47773;53.174;6.614;2023-04-08T09:16:48;25.80;;;14.07;;
61840;SDS011;47773;53.174;6.614;2023-04-08T09:19:15;23.40;;;12.90;;
61840;SDS011;47773;53.174;6.614;2023-04-08T09:21:41;23.63;;;12.75;;
61840;SDS011;47773;53.174;6.614;2023-04-08T09:24:07;22.10;;;13.48;;
61840;SDS011;47773;53.174;6.614;2023-04-08T09:26:34;22.85;;;13.43;;
61840;SDS011;47773;53.174;6.614;2023-04-08T09:31:37;20.57;;;12.50;;
61840;SDS011;47773;53.174;6.614;2023-04-08T09:36:35;22.15;;;11.88;;
61840;SDS011;47773;53.174;6.614;2023-04-08T09:39:01;20.42;;;12.23;;
61840;SDS011;47773;53.174;6.614;2023-04-08T09:41:27;19.90;;;11.25;;
61840;SDS011;47773;53.174;6.614;2023-04-08T09:43:53;22.70;;;11.82;;
61840;SDS011;47773;53.174;6.614;2023-04-08T09:57:10;21.70;;;11.45;;
61840;SDS011;47773;53.174;6.614;2023-04-08T09:59:42;24.83;;;11.90;;
61840;SDS011;47773;53.174;6.614;2023-04-08T10:02:14;21.60;;;12.18;;
61840;SDS011;47773;53.174;6.614;2023-04-08T10:04:44;21.40;;;12.00;;
61840;SDS011;47773;53.174;6.614;2023-04-08T10:07:12;21.95;;;12.40;;
61840;SDS011;47773;53.174;6.614;2023-04-08T10:09:39;22.10;;;12.95;;
61840;SDS011;47773;53.174;6.614;2023-04-08T10:12:07;22.58;;;12.20;;
61840;SDS011;47773;53.174;6.614;2023-04-08T10:14:33;23.08;;;12.25;;
61840;SDS011;47773;53.174;6.614;2023-04-08T10:19:52;27.33;;;12.90;;
61840;SDS011;47773;53.174;6.614;2023-04-08T10:27:58;25.27;;;12.98;;
61840;SDS011;47773;53.174;6.614;2023-04-08T10:32:57;32.33;;;14.45;;
61840;SDS011;47773;53.174;6.614;2023-04-08T10:35:37;28.77;;;14.80;;
61840;SDS011;47773;53.174;6.614;2023-04-08T10:38:06;28.23;;;14.35;;
61840;SDS011;47773;53.174;6.614;2023-04-08T10:40:36;28.85;;;15.73;;
61840;SDS011;47773;53.174;6.614;2023-04-08T10:43:07;30.02;;;15.77;;
61840;SDS011;47773;53.174;6.614;2023-04-08T10:45:33;30.98;;;16.50;;
61840;SDS011;47773;53.174;6.614;2023-04-08T10:48:15;31.23;;;15.35;;
61840;SDS011;47773;53.174;6.614;2023-04-08T10:50:56;28.02;;;15.27;;
61840;SDS011;47773;53.174;6.614;2023-04-08T10:53:41;31.17;;;15.07;;
61840;SDS011;47773;53.174;6.614;2023-04-08T10:56:11;32.10;;;16.58;;
61840;SDS011;47773;53.174;6.614;2023-04-08T10:58:52;33.10;;;16.85;;
61840;SDS011;47773;53.174;6.614;2023-04-08T11:01:21;35.10;;;16.23;;
61840;SDS011;47773;53.174;6.614;2023-04-08T11:03:47;32.33;;;16.17;;
61840;SDS011;47773;53.174;6.614;2023-04-08T11:06:13;39.20;;;17.88;;
61840;SDS011;47773;53.174;6.614;2023-04-08T11:08:39;35.50;;;18.10;;
61840;SDS011;47773;53.174;6.614;2023-04-08T11:11:05;34.25;;;18.13;;
61840;SDS011;47773;53.174;6.614;2023-04-08T11:13:39;35.95;;;17.02;;
61840;SDS011;47773;53.174;6.614;2023-04-08T11:16:06;32.63;;;16.67;;
61840;SDS011;47773;53.174;6.614;2023-04-08T11:18:39;37.28;;;17.45;;
61840;SDS011;47773;53.174;6.614;2023-04-08T11:21:08;35.88;;;17.95;;
61840;SDS011;47773;53.174;6.614;2023-04-08T11:23:36;32.42;;;17.33;;
61840;SDS011;47773;53.174;6.614;2023-04-08T11:26:02;35.20;;;17.13;;
61840;SDS011;47773;53.174;6.614;2023-04-08T11:28:28;38.80;;;17.73;;
61840;SDS011;47773;53.174;6.614;2023-04-08T11:30:55;44.60;;;20.13;;
61840;SDS011;47773;53.174;6.614;2023-04-08T11:33:23;43.75;;;19.13;;
61840;SDS011;47773;53.174;6.614;2023-04-08T11:35:51;49.17;;;20.38;;
61840;SDS011;47773;53.174;6.614;2023-04-08T11:38:20;43.75;;;20.33;;
61840;SDS011;47773;53.174;6.614;2023-04-08T11:40:53;51.42;;;21.05;;
61840;SDS011;47773;53.174;6.614;2023-04-08T11:43:20;49.60;;;21.15;;
61840;SDS011;47773;53.174;6.614;2023-04-08T11:45:46;56.95;;;22.13;;
61840;SDS011;47773;53.174;6.614;2023-04-08T11:48:13;50.63;;;21.15;;
61840;SDS011;47773;53.174;6.614;2023-04-08T11:50:40;51.65;;;21.10;;
61840;SDS011;47773;53.174;6.614;2023-04-08T11:53:19;47.28;;;20.48;;
61840;SDS011;47773;53.174;6.614;2023-04-08T11:55:46;46.67;;;21.13;;
61840;SDS011;47773;53.174;6.614;2023-04-08T11:58:12;48.97;;;21.00;;
61840;SDS011;47773;53.174;6.614;2023-04-08T12:00:38;45.50;;;20.77;;
61840;SDS011;47773;53.174;6.614;2023-04-08T12:03:05;46.65;;;20.20;;
61840;SDS011;47773;53.174;6.614;2023-04-08T12:05:31;37.75;;;17.85;;
61840;SDS011;47773;53.174;6.614;2023-04-08T12:07:57;44.28;;;19.38;;
61840;SDS011;47773;53.174;6.614;2023-04-08T12:10:23;40.30;;;19.17;;
61840;SDS011;47773;53.174;6.614;2023-04-08T12:12:52;43.78;;;19.13;;
61840;SDS011;47773;53.174;6.614;2023-04-08T12:15:18;44.78;;;20.42;;
61840;SDS011;47773;53.174;6.614;2023-04-08T12:17:44;42.88;;;20.67;;
61840;SDS011;47773;53.174;6.614;2023-04-08T12:20:10;45.58;;;19.58;;
61840;SDS011;47773;53.174;6.614;2023-04-08T12:22:36;46.42;;;22.17;;
61840;SDS011;47773;53.174;6.614;2023-04-08T12:25:02;46.95;;;20.52;;
61840;SDS011;47773;53.174;6.614;2023-04-08T12:27:31;46.92;;;21.38;;
61840;SDS011;47773;53.174;6.614;2023-04-08T12:29:57;47.47;;;21.75;;
61840;SDS011;47773;53.174;6.614;2023-04-08T12:32:24;51.22;;;22.35;;
61840;SDS011;47773;53.174;6.614;2023-04-08T12:34:50;49.08;;;23.15;;
61840;SDS011;47773;53.174;6.614;2023-04-08T12:37:16;45.22;;;24.05;;
61840;SDS011;47773;53.174;6.614;2023-04-08T12:39:41;47.80;;;23.55;;
61840;SDS011;47773;53.174;6.614;2023-04-08T12:42:07;51.75;;;26.30;;
61840;SDS011;47773;53.174;6.614;2023-04-08T12:44:33;53.45;;;26.20;;
61840;SDS011;47773;53.174;6.614;2023-04-08T12:46:59;48.92;;;24.67;;
61840;SDS011;47773;53.174;6.614;2023-04-08T12:49:25;54.00;;;25.75;;
61840;SDS011;47773;53.174;6.614;2023-04-08T12:51:51;60.70;;;25.13;;
61840;SDS011;47773;53.174;6.614;2023-04-08T12:54:17;53.17;;;24.77;;
61840;SDS011;47773;53.174;6.614;2023-04-08T12:56:43;49.58;;;24.58;;
61840;SDS011;47773;53.174;6.614;2023-04-08T12:59:09;47.05;;;25.65;;
61840;SDS011;47773;53.174;6.614;2023-04-08T13:01:35;50.30;;;25.40;;
61840;SDS011;47773;53.174;6.614;2023-04-08T13:04:01;44.08;;;22.98;;
61840;SDS011;47773;53.174;6.614;2023-04-08T13:06:27;52.58;;;25.13;;
61840;SDS011;47773;53.174;6.614;2023-04-08T13:08:53;48.45;;;23.70;;
61840;SDS011;47773;53.174;6.614;2023-04-08T13:11:19;47.20;;;23.08;;
61840;SDS011;47773;53.174;6.614;2023-04-08T13:13:45;41.03;;;20.65;;
61840;SDS011;47773;53.174;6.614;2023-04-08T13:16:11;36.70;;;20.52;;
61840;SDS011;47773;53.174;6.614;2023-04-08T13:18:38;39.50;;;21.30;;
61840;SDS011;47773;53.174;6.614;2023-04-08T13:21:05;45.65;;;24.02;;
61840;SDS011;47773;53.174;6.614;2023-04-08T13:23:31;42.17;;;22.35;;
61840;SDS011;47773;53.174;6.614;2023-04-08T13:25:57;40.85;;;21.25;;
61840;SDS011;47773;53.174;6.614;2023-04-08T13:28:23;36.47;;;20.60;;
61840;SDS011;47773;53.174;6.614;2023-04-08T13:30:48;39.13;;;20.00;;
61840;SDS011;47773;53.174;6.614;2023-04-08T13:33:14;43.30;;;21.85;;
61840;SDS011;47773;53.174;6.614;2023-04-08T13:35:40;40.10;;;21.80;;
61840;SDS011;47773;53.174;6.614;2023-04-08T13:38:05;40.65;;;20.58;;
61840;SDS011;47773;53.174;6.614;2023-04-08T13:40:31;38.90;;;21.63;;
61840;SDS011;47773;53.174;6.614;2023-04-08T13:42:57;40.95;;;21.65;;
61840;SDS011;47773;53.174;6.614;2023-04-08T13:45:23;38.80;;;21.73;;
61840;SDS011;47773;53.174;6.614;2023-04-08T13:47:48;38.72;;;22.70;;
61840;SDS011;47773;53.174;6.614;2023-04-08T13:50:14;43.83;;;23.98;;
61840;SDS011;47773;53.174;6.614;2023-04-08T13:52:40;45.10;;;25.13;;
61840;SDS011;47773;53.174;6.614;2023-04-08T13:55:06;51.40;;;25.00;;
61840;SDS011;47773;53.174;6.614;2023-04-08T13:57:32;47.88;;;25.55;;
61840;SDS011;47773;53.174;6.614;2023-04-08T13:59:57;39.95;;;23.15;;
61840;SDS011;47773;53.174;6.614;2023-04-08T14:02:23;41.67;;;24.05;;
61840;SDS011;47773;53.174;6.614;2023-04-08T14:04:49;44.70;;;24.73;;
61840;SDS011;47773;53.174;6.614;2023-04-08T14:07:14;43.22;;;24.35;;
61840;SDS011;47773;53.174;6.614;2023-04-08T14:09:40;42.00;;;24.77;;
61840;SDS011;47773;53.174;6.614;2023-04-08T14:12:05;45.40;;;25.00;;
61840;SDS011;47773;53.174;6.614;2023-04-08T14:14:31;42.60;;;23.85;;
61840;SDS011;47773;53.174;6.614;2023-04-08T14:16:57;45.20;;;24.63;;
61840;SDS011;47773;53.174;6.614;2023-04-08T14:19:22;38.47;;;23.55;;
61840;SDS011;47773;53.174;6.614;2023-04-08T14:21:48;42.88;;;23.80;;
61840;SDS011;47773;53.174;6.614;2023-04-08T14:24:14;42.00;;;23.75;;
61840;SDS011;47773;53.174;6.614;2023-04-08T14:26:40;45.15;;;24.15;;
61840;SDS011;47773;53.174;6.614;2023-04-08T14:29:06;48.05;;;24.67;;
61840;SDS011;47773;53.174;6.614;2023-04-08T14:31:32;42.00;;;23.63;;
61840;SDS011;47773;53.174;6.614;2023-04-08T14:33:59;39.65;;;24.52;;
61840;SDS011;47773;53.174;6.614;2023-04-08T14:36:25;44.95;;;24.92;;
61840;SDS011;47773;53.174;6.614;2023-04-08T14:38:52;43.08;;;24.20;;
61840;SDS011;47773;53.174;6.614;2023-04-08T14:41:18;42.72;;;25.48;;
61840;SDS011;47773;53.174;6.614;2023-04-08T14:43:45;40.88;;;24.77;;
61840;SDS011;47773;53.174;6.614;2023-04-08T14:46:11;42.85;;;25.42;;
61840;SDS011;47773;53.174;6.614;2023-04-08T14:48:37;42.45;;;24.85;;
61840;SDS011;47773;53.174;6.614;2023-04-08T14:51:03;43.45;;;25.98;;
61840;SDS011;47773;53.174;6.614;2023-04-08T14:53:29;51.40;;;26.67;;
61840;SDS011;47773;53.174;6.614;2023-04-08T14:55:54;49.92;;;27.75;;